sensor_id;sensor_type;location;lat;lon;timestamp;pressure;altitude;pressure_sealevel;temperature;humidity
76732;BME280;65656;51.130;13.658;2022-12-19T00:01:46;100530.41;;;-5.42;78.47
76732;BME280;65656;51.130;13.658;2022-12-19T00:05:47;100504.91;;;-5.46;77.91
76732;BME280;65656;51.130;13.658;2022-12-19T00:09:49;100509.03;;;-5.42;77.33
76732;BME280;65656;51.130;13.658;2022-12-19T00:13:52;100511.00;;;-5.44;77.89
76732;BME280;65656;51.130;13.658;2022-12-19T00:17:54;100500.78;;;-5.50;77.21
76732;BME280;65656;51.130;13.658;2022-12-19T00:21:55;100508.66;;;-5.49;77.17
76732;BME280;65656;51.130;13.658;2022-12-19T00:26:06;100514.13;;;-5.50;76.56
76732;BME280;65656;51.130;13.658;2022-12-19T00:30:10;100511.94;;;-5.56;76.97
76732;BME280;65656;51.130;13.658;2022-12-19T00:34:12;100513.25;;;-5.62;77.21
76732;BME280;65656;51.130;13.658;2022-12-19T00:38:13;100527.00;;;-5.67;77.59
76732;BME280;65656;51.130;13.658;2022-12-19T00:42:15;100506.94;;;-5.72;77.18
76732;BME280;65656;51.130;13.658;2022-12-19T00:46:18;100494.22;;;-5.80;77.08
76732;BME280;65656;51.130;13.658;2022-12-19T00:50:20;100499.53;;;-5.80;76.94
76732;BME280;65656;51.130;13.658;2022-12-19T00:54:21;100498.31;;;-5.87;76.98
76732;BME280;65656;51.130;13.658;2022-12-19T00:58:23;100487.91;;;-5.90;76.76
76732;BME280;65656;51.130;13.658;2022-12-19T01:02:26;100491.19;;;-5.98;77.38
76732;BME280;65656;51.130;13.658;2022-12-19T01:06:28;100478.56;;;-5.96;76.55
76732;BME280;65656;51.130;13.658;2022-12-19T01:10:30;100498.81;;;-5.93;76.43
76732;BME280;65656;51.130;13.658;2022-12-19T01:14:32;100494.31;;;-5.93;76.26
76732;BME280;65656;51.130;13.658;2022-12-19T01:18:34;100474.06;;;-5.95;75.87
76732;BME280;65656;51.130;13.658;2022-12-19T01:22:36;100475.06;;;-5.96;76.00
76732;BME280;65656;51.130;13.658;2022-12-19T01:26:38;100459.25;;;-5.99;75.78
76732;BME280;65656;51.130;13.658;2022-12-19T01:30:39;100471.66;;;-5.98;75.42
76732;BME280;65656;51.130;13.658;2022-12-19T01:34:43;100456.84;;;-6.02;75.93
76732;BME280;65656;51.130;13.658;2022-12-19T01:38:45;100451.97;;;-6.08;75.98
76732;BME280;65656;51.130;13.658;2022-12-19T01:42:47;100459.75;;;-6.05;75.20
76732;BME280;65656;51.130;13.658;2022-12-19T01:46:51;100460.09;;;-6.10;75.72
76732;BME280;65656;51.130;13.658;2022-12-19T01:50:57;100458.41;;;-6.11;75.88
76732;BME280;65656;51.130;13.658;2022-12-19T01:55:03;100455.88;;;-6.12;75.66
76732;BME280;65656;51.130;13.658;2022-12-19T01:59:08;100449.06;;;-6.17;75.65
76732;BME280;65656;51.130;13.658;2022-12-19T02:03:14;100453.66;;;-6.19;75.88
76732;BME280;65656;51.130;13.658;2022-12-19T02:07:19;100443.13;;;-6.20;75.45
76732;BME280;65656;51.130;13.658;2022-12-19T02:11:22;100430.25;;;-6.15;74.85
76732;BME280;65656;51.130;13.658;2022-12-19T02:15:26;100438.38;;;-6.17;74.71
76732;BME280;65656;51.130;13.658;2022-12-19T02:19:51;100437.66;;;-6.19;75.51
76732;BME280;65656;51.130;13.658;2022-12-19T02:24:34;100424.31;;;-6.19;74.55
76732;BME280;65656;51.130;13.658;2022-12-19T02:29:03;100411.81;;;-6.18;75.61
76732;BME280;65656;51.130;13.658;2022-12-19T02:33:16;100414.84;;;-6.23;75.55
76732;BME280;65656;51.130;13.658;2022-12-19T02:37:22;100399.81;;;-6.24;75.38
76732;BME280;65656;51.130;13.658;2022-12-19T02:41:33;100424.78;;;-6.25;75.73
76732;BME280;65656;51.130;13.658;2022-12-19T02:45:36;100427.97;;;-6.20;75.33
76732;BME280;65656;51.130;13.658;2022-12-19T02:49:41;100419.97;;;-6.08;74.85
76732;BME280;65656;51.130;13.658;2022-12-19T02:53:42;100437.91;;;-6.10;75.00
76732;BME280;65656;51.130;13.658;2022-12-19T02:57:55;100443.00;;;-6.07;75.59
76732;BME280;65656;51.130;13.658;2022-12-19T03:02:04;100442.41;;;-6.00;75.49
76732;BME280;65656;51.130;13.658;2022-12-19T03:06:16;100436.22;;;-5.89;75.71
76732;BME280;65656;51.130;13.658;2022-12-19T03:10:24;100440.44;;;-5.86;75.62
76732;BME280;65656;51.130;13.658;2022-12-19T03:14:30;100434.00;;;-5.84;75.72
76732;BME280;65656;51.130;13.658;2022-12-19T03:18:32;100454.88;;;-5.78;75.49
76732;BME280;65656;51.130;13.658;2022-12-19T03:22:35;100444.00;;;-5.75;75.77
76732;BME280;65656;51.130;13.658;2022-12-19T03:26:41;100454.41;;;-5.72;75.45
76732;BME280;65656;51.130;13.658;2022-12-19T03:30:45;100468.25;;;-5.67;75.90
76732;BME280;65656;51.130;13.658;2022-12-19T03:34:51;100471.66;;;-5.65;75.58
76732;BME280;65656;51.130;13.658;2022-12-19T03:38:56;100494.22;;;-5.57;75.69
76732;BME280;65656;51.130;13.658;2022-12-19T03:43:01;100485.63;;;-5.50;75.59
76732;BME280;65656;51.130;13.658;2022-12-19T03:47:09;100479.03;;;-5.46;75.43
76732;BME280;65656;51.130;13.658;2022-12-19T03:51:17;100484.88;;;-5.41;75.36
76732;BME280;65656;51.130;13.658;2022-12-19T03:55:27;100484.41;;;-5.35;75.94
76732;BME280;65656;51.130;13.658;2022-12-19T03:59:34;100484.41;;;-5.35;75.71
76732;BME280;65656;51.130;13.658;2022-12-19T04:03:38;100488.63;;;-5.32;75.75
76732;BME280;65656;51.130;13.658;2022-12-19T04:07:40;100491.53;;;-5.24;76.06
76732;BME280;65656;51.130;13.658;2022-12-19T04:11:48;100487.91;;;-5.23;76.66
76732;BME280;65656;51.130;13.658;2022-12-19T04:15:59;100499.78;;;-5.16;76.19
76732;BME280;65656;51.130;13.658;2022-12-19T04:20:08;100497.59;;;-5.11;76.23
76732;BME280;65656;51.130;13.658;2022-12-19T04:24:14;100486.66;;;-5.08;76.28
76732;BME280;65656;51.130;13.658;2022-12-19T04:28:23;100465.06;;;-5.05;76.59
76732;BME280;65656;51.130;13.658;2022-12-19T04:32:26;100457.50;;;-4.99;76.61
76732;BME280;65656;51.130;13.658;2022-12-19T04:36:28;100450.44;;;-5.00;76.55
76732;BME280;65656;51.130;13.658;2022-12-19T04:40:30;100451.91;;;-4.96;76.64
76732;BME280;65656;51.130;13.658;2022-12-19T04:44:38;100437.81;;;-4.98;76.91
76732;BME280;65656;51.130;13.658;2022-12-19T04:48:39;100436.84;;;-4.97;76.83
76732;BME280;65656;51.130;13.658;2022-12-19T04:52:41;100447.16;;;-4.93;77.26
76732;BME280;65656;51.130;13.658;2022-12-19T04:56:42;100455.03;;;-4.91;76.98
76732;BME280;65656;51.130;13.658;2022-12-19T05:00:45;100466.56;;;-4.91;77.54
76732;BME280;65656;51.130;13.658;2022-12-19T05:04:47;100462.34;;;-4.93;76.96
76732;BME280;65656;51.130;13.658;2022-12-19T05:08:49;100464.38;;;-4.86;77.70
76732;BME280;65656;51.130;13.658;2022-12-19T05:12:52;100476.78;;;-4.85;77.54
76732;BME280;65656;51.130;13.658;2022-12-19T05:16:55;100484.34;;;-4.90;77.80
76732;BME280;65656;51.130;13.658;2022-12-19T05:21:02;100482.38;;;-4.88;77.82
76732;BME280;65656;51.130;13.658;2022-12-19T05:25:05;100478.88;;;-4.88;77.92
76732;BME280;65656;51.130;13.658;2022-12-19T05:29:07;100462.69;;;-4.87;77.52
76732;BME280;65656;51.130;13.658;2022-12-19T05:33:10;100470.84;;;-4.88;77.94
76732;BME280;65656;51.130;13.658;2022-12-19T05:37:11;100469.16;;;-4.89;77.62
76732;BME280;65656;51.130;13.658;2022-12-19T05:41:14;100466.94;;;-4.84;78.05
76732;BME280;65656;51.130;13.658;2022-12-19T05:45:16;100477.63;;;-4.84;77.44
76732;BME280;65656;51.130;13.658;2022-12-19T05:49:19;100470.44;;;-4.84;78.15
76732;BME280;65656;51.130;13.658;2022-12-19T05:53:21;100468.47;;;-4.70;77.88
76732;BME280;65656;51.130;13.658;2022-12-19T05:57:26;100457.41;;;-4.66;77.90
76732;BME280;65656;51.130;13.658;2022-12-19T06:01:28;100446.91;;;-4.58;77.74
76732;BME280;65656;51.130;13.658;2022-12-19T06:05:31;100437.41;;;-4.51;77.32
76732;BME280;65656;51.130;13.658;2022-12-19T06:09:33;100437.13;;;-4.47;77.60
76732;BME280;65656;51.130;13.658;2022-12-19T06:13:35;100437.72;;;-4.44;76.59
76732;BME280;65656;51.130;13.658;2022-12-19T06:17:37;100415.22;;;-4.41;77.40
76732;BME280;65656;51.130;13.658;2022-12-19T06:21:40;100414.97;;;-4.38;77.59
76732;BME280;65656;51.130;13.658;2022-12-19T06:25:48;100412.47;;;-4.30;77.25
76732;BME280;65656;51.130;13.658;2022-12-19T06:29:50;100405.16;;;-4.28;78.21
76732;BME280;65656;51.130;13.658;2022-12-19T06:33:53;100418.44;;;-4.27;77.40
76732;BME280;65656;51.130;13.658;2022-12-19T06:37:56;100410.28;;;-4.25;77.23
76732;BME280;65656;51.130;13.658;2022-12-19T06:42:01;100413.50;;;-4.22;77.85
76732;BME280;65656;51.130;13.658;2022-12-19T06:46:03;100419.00;;;-4.23;77.62
76732;BME280;65656;51.130;13.658;2022-12-19T06:50:05;100408.56;;;-4.26;77.83
76732;BME280;65656;51.130;13.658;2022-12-19T06:54:09;100417.31;;;-4.24;78.15
76732;BME280;65656;51.130;13.658;2022-12-19T06:58:11;100406.34;;;-4.21;78.05
76732;BME280;65656;51.130;13.658;2022-12-19T07:02:21;100410.84;;;-4.22;78.73
76732;BME280;65656;51.130;13.658;2022-12-19T07:06:24;100412.63;;;-4.11;77.50
76732;BME280;65656;51.130;13.658;2022-12-19T07:10:27;100398.25;;;-4.10;78.31
76732;BME280;65656;51.130;13.658;2022-12-19T07:14:28;100399.94;;;-4.09;77.54
76732;BME280;65656;51.130;13.658;2022-12-19T07:18:33;100405.75;;;-4.04;77.10
76732;BME280;65656;51.130;13.658;2022-12-19T07:22:35;100406.72;;;-4.05;77.96
76732;BME280;65656;51.130;13.658;2022-12-19T07:26:39;100412.81;;;-4.03;78.05
76732;BME280;65656;51.130;13.658;2022-12-19T07:30:41;100419.31;;;-3.96;78.33
76732;BME280;65656;51.130;13.658;2022-12-19T07:34:43;100411.34;;;-3.86;78.44
76732;BME280;65656;51.130;13.658;2022-12-19T07:38:44;100415.84;;;-3.86;77.15
76732;BME280;65656;51.130;13.658;2022-12-19T07:42:47;100407.81;;;-3.86;77.30
76732;BME280;65656;51.130;13.658;2022-12-19T07:46:49;100399.78;;;-3.86;77.77
76732;BME280;65656;51.130;13.658;2022-12-19T07:50:50;100407.28;;;-3.80;77.13
76732;BME280;65656;51.130;13.658;2022-12-19T07:54:52;100406.03;;;-3.76;77.65
76732;BME280;65656;51.130;13.658;2022-12-19T07:58:55;100416.72;;;-3.76;77.49
76732;BME280;65656;51.130;13.658;2022-12-19T08:02:57;100405.22;;;-3.67;76.61
76732;BME280;65656;51.130;13.658;2022-12-19T08:06:59;100417.34;;;-3.63;76.02
76732;BME280;65656;51.130;13.658;2022-12-19T08:11:08;100427.53;;;-3.57;77.23
76732;BME280;65656;51.130;13.658;2022-12-19T08:15:11;100442.53;;;-3.45;76.51
76732;BME280;65656;51.130;13.658;2022-12-19T08:19:13;100423.50;;;-3.42;75.96
76732;BME280;65656;51.130;13.658;2022-12-19T08:23:14;100413.94;;;-3.34;76.27
76732;BME280;65656;51.130;13.658;2022-12-19T08:27:16;100395.19;;;-3.34;76.60
76732;BME280;65656;51.130;13.658;2022-12-19T08:31:20;100412.66;;;-3.30;75.71
76732;BME280;65656;51.130;13.658;2022-12-19T08:35:22;100396.34;;;-3.18;76.63
76732;BME280;65656;51.130;13.658;2022-12-19T08:39:24;100400.56;;;-3.15;76.69
76732;BME280;65656;51.130;13.658;2022-12-19T08:43:26;100368.72;;;-2.99;75.14
76732;BME280;65656;51.130;13.658;2022-12-19T08:47:29;100379.44;;;-2.99;75.37
76732;BME280;65656;51.130;13.658;2022-12-19T08:51:30;100361.66;;;-2.90;74.42
76732;BME280;65656;51.130;13.658;2022-12-19T08:55:34;100368.28;;;-2.85;75.43
76732;BME280;65656;51.130;13.658;2022-12-19T08:59:35;100379.03;;;-2.75;74.05
76732;BME280;65656;51.130;13.658;2022-12-19T09:03:39;100367.88;;;-2.70;74.79
76732;BME280;65656;51.130;13.658;2022-12-19T09:08:01;100372.38;;;-2.61;74.88
76732;BME280;65656;51.130;13.658;2022-12-19T09:12:02;100365.31;;;-2.53;74.80
76732;BME280;65656;51.130;13.658;2022-12-19T09:16:09;100358.53;;;-2.47;74.46
76732;BME280;65656;51.130;13.658;2022-12-19T09:20:12;100350.31;;;-2.36;74.49
76732;BME280;65656;51.130;13.658;2022-12-19T09:24:21;100354.28;;;-2.40;75.15
76732;BME280;65656;51.130;13.658;2022-12-19T09:28:23;100330.84;;;-2.38;75.00
76732;BME280;65656;51.130;13.658;2022-12-19T09:32:28;100328.31;;;-2.39;75.22
76732;BME280;65656;51.130;13.658;2022-12-19T09:36:31;100315.16;;;-2.33;74.78
76732;BME280;65656;51.130;13.658;2022-12-19T09:40:42;100312.16;;;-2.30;74.48
76732;BME280;65656;51.130;13.658;2022-12-19T09:44:59;100319.19;;;-2.19;75.02
76732;BME280;65656;51.130;13.658;2022-12-19T09:49:11;100337.13;;;-2.19;75.31
76732;BME280;65656;51.130;13.658;2022-12-19T09:53:20;100330.22;;;-2.22;74.81
76732;BME280;65656;51.130;13.658;2022-12-19T09:57:31;100316.66;;;-2.20;75.46
76732;BME280;65656;51.130;13.658;2022-12-19T10:01:47;100312.38;;;-2.13;75.48
76732;BME280;65656;51.130;13.658;2022-12-19T10:05:54;100303.19;;;-2.11;75.77
76732;BME280;65656;51.130;13.658;2022-12-19T10:10:26;100313.50;;;-2.06;75.48
76732;BME280;65656;51.130;13.658;2022-12-19T10:14:56;100299.34;;;-1.99;75.24
76732;BME280;65656;51.130;13.658;2022-12-19T10:19:02;100306.44;;;-1.80;75.14
76732;BME280;65656;51.130;13.658;2022-12-19T10:23:25;100291.47;;;-1.55;74.76
76732;BME280;65656;51.130;13.658;2022-12-19T10:27:40;100295.38;;;-1.49;74.48
76732;BME280;65656;51.130;13.658;2022-12-19T10:32:03;100301.50;;;-1.29;73.96
76732;BME280;65656;51.130;13.658;2022-12-19T10:36:09;100293.66;;;-1.23;73.63
76732;BME280;65656;51.130;13.658;2022-12-19T10:40:16;100289.88;;;-0.94;73.22
76732;BME280;65656;51.130;13.658;2022-12-19T10:44:33;100281.59;;;-1.19;73.43
76732;BME280;65656;51.130;13.658;2022-12-19T10:48:36;100280.13;;;-1.13;73.13
76732;BME280;65656;51.130;13.658;2022-12-19T10:52:48;100283.13;;;-0.98;73.71
76732;BME280;65656;51.130;13.658;2022-12-19T10:56:49;100273.72;;;-0.94;72.96
76732;BME280;65656;51.130;13.658;2022-12-19T11:01:03;100271.75;;;-0.92;73.05
76732;BME280;65656;51.130;13.658;2022-12-19T11:05:19;100278.69;;;-1.07;72.82
76732;BME280;65656;51.130;13.658;2022-12-19T11:09:25;100271.53;;;-1.17;72.87
76732;BME280;65656;51.130;13.658;2022-12-19T11:13:38;100261.47;;;-1.15;74.25
76732;BME280;65656;51.130;13.658;2022-12-19T11:18:08;100261.75;;;-1.18;73.38
76732;BME280;65656;51.130;13.658;2022-12-19T11:22:30;100255.47;;;-1.08;73.51
76732;BME280;65656;51.130;13.658;2022-12-19T11:26:52;100240.38;;;-1.01;73.32
76732;BME280;65656;51.130;13.658;2022-12-19T11:31:21;100229.34;;;-0.98;73.23
76732;BME280;65656;51.130;13.658;2022-12-19T11:35:47;100227.72;;;-0.91;73.68
76732;BME280;65656;51.130;13.658;2022-12-19T11:39:53;100225.75;;;-0.81;73.46
76732;BME280;65656;51.130;13.658;2022-12-19T11:43:59;100229.00;;;-0.95;73.65
76732;BME280;65656;51.130;13.658;2022-12-19T11:48:14;100217.31;;;-0.86;73.49
76732;BME280;65656;51.130;13.658;2022-12-19T11:52:32;100229.47;;;-0.82;74.28
76732;BME280;65656;51.130;13.658;2022-12-19T11:56:56;100213.81;;;-1.04;74.15
76732;BME280;65656;51.130;13.658;2022-12-19T12:01:05;100207.97;;;-1.18;75.13
76732;BME280;65656;51.130;13.658;2022-12-19T12:05:44;100191.63;;;-1.06;75.08
76732;BME280;65656;51.130;13.658;2022-12-19T12:09:53;100188.88;;;-1.15;74.95
76732;BME280;65656;51.130;13.658;2022-12-19T12:14:19;100189.78;;;-1.06;75.57
76732;BME280;65656;51.130;13.658;2022-12-19T12:18:52;100195.59;;;-0.93;75.16
76732;BME280;65656;51.130;13.658;2022-12-19T12:23:26;100184.00;;;-0.93;75.34
76732;BME280;65656;51.130;13.658;2022-12-19T12:27:55;100186.59;;;-1.01;74.90
76732;BME280;65656;51.130;13.658;2022-12-19T12:32:39;100177.59;;;-0.92;74.57
76732;BME280;65656;51.130;13.658;2022-12-19T12:37:15;100168.78;;;-1.02;75.73
76732;BME280;65656;51.130;13.658;2022-12-19T12:41:44;100167.16;;;-0.95;76.07
76732;BME280;65656;51.130;13.658;2022-12-19T12:45:52;100157.78;;;-1.09;76.47
76732;BME280;65656;51.130;13.658;2022-12-19T12:49:56;100155.66;;;-1.05;75.77
76732;BME280;65656;51.130;13.658;2022-12-19T12:54:02;100153.41;;;-0.92;76.19
76732;BME280;65656;51.130;13.658;2022-12-19T12:58:09;100147.59;;;-1.05;77.37
76732;BME280;65656;51.130;13.658;2022-12-19T13:02:31;100152.63;;;-1.02;77.74
76732;BME280;65656;51.130;13.658;2022-12-19T13:06:36;100146.19;;;-1.09;77.75
76732;BME280;65656;51.130;13.658;2022-12-19T13:10:52;100147.59;;;-1.05;78.25
76732;BME280;65656;51.130;13.658;2022-12-19T13:15:19;100139.13;;;-1.10;79.06
76732;BME280;65656;51.130;13.658;2022-12-19T13:19:32;100135.59;;;-1.11;79.90
76732;BME280;65656;51.130;13.658;2022-12-19T13:23:48;100138.13;;;-1.09;80.36
76732;BME280;65656;51.130;13.658;2022-12-19T13:27:54;100133.34;;;-1.24;81.03
76732;BME280;65656;51.130;13.658;2022-12-19T13:32:10;100134.66;;;-1.28;81.99
76732;BME280;65656;51.130;13.658;2022-12-19T13:36:49;100130.72;;;-1.33;82.09
76732;BME280;65656;51.130;13.658;2022-12-19T13:41:25;100131.91;;;-1.36;82.02
76732;BME280;65656;51.130;13.658;2022-12-19T13:45:28;100133.22;;;-1.40;82.66
76732;BME280;65656;51.130;13.658;2022-12-19T13:49:32;100136.88;;;-1.41;83.27
76732;BME280;65656;51.130;13.658;2022-12-19T13:53:37;100131.00;;;-1.45;83.57
76732;BME280;65656;51.130;13.658;2022-12-19T13:57:39;100119.06;;;-1.42;84.41
76732;BME280;65656;51.130;13.658;2022-12-19T14:01:41;100117.72;;;-1.46;84.33
76732;BME280;65656;51.130;13.658;2022-12-19T14:05:43;100124.78;;;-1.45;84.81
76732;BME280;65656;51.130;13.658;2022-12-19T14:10:15;100108.59;;;-1.53;85.43
76732;BME280;65656;51.130;13.658;2022-12-19T14:14:49;100116.31;;;-1.50;86.11
76732;BME280;65656;51.130;13.658;2022-12-19T14:19:18;100109.25;;;-1.51;86.33
76732;BME280;65656;51.130;13.658;2022-12-19T14:23:20;100107.75;;;-1.54;86.37
76732;BME280;65656;51.130;13.658;2022-12-19T14:27:50;100105.34;;;-1.57;86.89
76732;BME280;65656;51.130;13.658;2022-12-19T14:32:14;100110.19;;;-1.60;87.26
76732;BME280;65656;51.130;13.658;2022-12-19T14:36:38;100098.91;;;-1.64;88.15
76732;BME280;65656;51.130;13.658;2022-12-19T14:40:41;100109.34;;;-1.61;88.10
76732;BME280;65656;51.130;13.658;2022-12-19T14:45:31;100102.81;;;-1.58;88.37
76732;BME280;65656;51.130;13.658;2022-12-19T14:49:53;100101.81;;;-1.57;88.33
76732;BME280;65656;51.130;13.658;2022-12-19T14:54:17;100098.84;;;-1.54;88.98
76732;BME280;65656;51.130;13.658;2022-12-19T14:58:39;100103.22;;;-1.53;88.63
76732;BME280;65656;51.130;13.658;2022-12-19T15:03:00;100102.22;;;-1.52;88.84
76732;BME280;65656;51.130;13.658;2022-12-19T15:07:05;100107.41;;;-1.51;88.56
76732;BME280;65656;51.130;13.658;2022-12-19T15:11:24;100104.28;;;-1.46;88.91
76732;BME280;65656;51.130;13.658;2022-12-19T15:15:51;100101.59;;;-1.46;89.26
76732;BME280;65656;51.130;13.658;2022-12-19T15:19:55;100103.94;;;-1.43;89.03
76732;BME280;65656;51.130;13.658;2022-12-19T15:23:56;100112.56;;;-1.39;89.17
76732;BME280;65656;51.130;13.658;2022-12-19T15:27:58;100116.44;;;-1.34;89.00
76732;BME280;65656;51.130;13.658;2022-12-19T15:31:59;100108.09;;;-1.31;89.06
76732;BME280;65656;51.130;13.658;2022-12-19T15:36:03;100115.81;;;-1.28;89.43
76732;BME280;65656;51.130;13.658;2022-12-19T15:40:06;100112.13;;;-1.27;89.48
76732;BME280;65656;51.130;13.658;2022-12-19T15:44:14;100100.53;;;-1.27;88.89
76732;BME280;65656;51.130;13.658;2022-12-19T15:48:16;100094.31;;;-1.28;89.60
76732;BME280;65656;51.130;13.658;2022-12-19T15:52:20;100081.88;;;-1.29;90.24
76732;BME280;65656;51.130;13.658;2022-12-19T15:56:24;100075.50;;;-1.28;89.81
76732;BME280;65656;51.130;13.658;2022-12-19T16:00:30;100077.19;;;-1.27;89.70
76732;BME280;65656;51.130;13.658;2022-12-19T16:04:32;100074.50;;;-1.27;89.72
76732;BME280;65656;51.130;13.658;2022-12-19T16:08:36;100069.44;;;-1.30;89.49
76732;BME280;65656;51.130;13.658;2022-12-19T16:12:39;100076.19;;;-1.26;89.28
76732;BME280;65656;51.130;13.658;2022-12-19T16:16:42;100067.97;;;-1.24;89.54
76732;BME280;65656;51.130;13.658;2022-12-19T16:20:45;100068.13;;;-1.26;89.45
76732;BME280;65656;51.130;13.658;2022-12-19T16:24:48;100065.75;;;-1.29;89.40
76732;BME280;65656;51.130;13.658;2022-12-19T16:28:50;100066.59;;;-1.28;89.60
76732;BME280;65656;51.130;13.658;2022-12-19T16:32:52;100074.50;;;-1.27;89.01
76732;BME280;65656;51.130;13.658;2022-12-19T16:36:53;100060.03;;;-1.26;88.91
76732;BME280;65656;51.130;13.658;2022-12-19T16:40:56;100062.78;;;-1.18;88.90
76732;BME280;65656;51.130;13.658;2022-12-19T16:44:58;100070.16;;;-1.20;88.72
76732;BME280;65656;51.130;13.658;2022-12-19T16:49:00;100057.94;;;-1.14;89.09
76732;BME280;65656;51.130;13.658;2022-12-19T16:53:03;100057.09;;;-1.15;88.76
76732;BME280;65656;51.130;13.658;2022-12-19T16:57:14;100063.84;;;-1.10;89.18
76732;BME280;65656;51.130;13.658;2022-12-19T17:01:17;100061.84;;;-1.08;88.96
76732;BME280;65656;51.130;13.658;2022-12-19T17:05:21;100056.16;;;-1.05;89.30
76732;BME280;65656;51.130;13.658;2022-12-19T17:09:24;100066.56;;;-1.02;88.92
76732;BME280;65656;51.130;13.658;2022-12-19T17:13:27;100055.97;;;-1.04;89.57
76732;BME280;65656;51.130;13.658;2022-12-19T17:17:28;100045.06;;;-1.02;89.01
76732;BME280;65656;51.130;13.658;2022-12-19T17:21:30;100055.50;;;-0.99;89.37
76732;BME280;65656;51.130;13.658;2022-12-19T17:25:32;100048.28;;;-0.99;88.74
76732;BME280;65656;51.130;13.658;2022-12-19T17:29:35;100042.41;;;-0.94;88.82
76732;BME280;65656;51.130;13.658;2022-12-19T17:33:38;100043.09;;;-0.92;88.26
76732;BME280;65656;51.130;13.658;2022-12-19T17:37:41;100052.19;;;-0.93;88.46
76732;BME280;65656;51.130;13.658;2022-12-19T17:41:43;100046.47;;;-0.90;88.10
76732;BME280;65656;51.130;13.658;2022-12-19T17:45:46;100056.91;;;-0.87;87.49
76732;BME280;65656;51.130;13.658;2022-12-19T17:49:50;100052.53;;;-0.88;87.78
76732;BME280;65656;51.130;13.658;2022-12-19T17:53:51;100051.38;;;-0.86;87.73
76732;BME280;65656;51.130;13.658;2022-12-19T17:57:55;100043.16;;;-0.84;87.92
76732;BME280;65656;51.130;13.658;2022-12-19T18:01:58;100055.88;;;-0.86;87.87
76732;BME280;65656;51.130;13.658;2022-12-19T18:06:00;100032.38;;;-0.84;88.08
76732;BME280;65656;51.130;13.658;2022-12-19T18:10:13;100025.31;;;-0.85;87.91
76732;BME280;65656;51.130;13.658;2022-12-19T18:14:14;100037.75;;;-0.84;88.15
76732;BME280;65656;51.130;13.658;2022-12-19T18:18:29;100041.13;;;-0.82;87.85
76732;BME280;65656;51.130;13.658;2022-12-19T18:22:31;100044.19;;;-0.77;87.40
76732;BME280;65656;51.130;13.658;2022-12-19T18:26:32;100044.84;;;-0.75;87.89
76732;BME280;65656;51.130;13.658;2022-12-19T18:30:34;100046.72;;;-0.75;88.37
76732;BME280;65656;51.130;13.658;2022-12-19T18:34:38;100052.94;;;-0.75;88.44
76732;BME280;65656;51.130;13.658;2022-12-19T18:38:40;100056.28;;;-0.73;88.14
76732;BME280;65656;51.130;13.658;2022-12-19T18:42:42;100047.56;;;-0.75;88.45
76732;BME280;65656;51.130;13.658;2022-12-19T18:46:44;100049.22;;;-0.74;88.27
76732;BME280;65656;51.130;13.658;2022-12-19T18:50:47;100065.53;;;-0.75;88.47
76732;BME280;65656;51.130;13.658;2022-12-19T18:54:49;100068.41;;;-0.77;88.11
76732;BME280;65656;51.130;13.658;2022-12-19T18:58:50;100063.16;;;-0.78;88.73
76732;BME280;65656;51.130;13.658;2022-12-19T19:02:54;100038.81;;;-0.77;88.73
76732;BME280;65656;51.130;13.658;2022-12-19T19:06:58;100041.50;;;-0.77;88.90
76732;BME280;65656;51.130;13.658;2022-12-19T19:11:00;100019.97;;;-0.77;88.82
76732;BME280;65656;51.130;13.658;2022-12-19T19:15:01;100011.22;;;-0.71;88.69
76732;BME280;65656;51.130;13.658;2022-12-19T19:19:04;100003.84;;;-0.69;88.80
76732;BME280;65656;51.130;13.658;2022-12-19T19:23:10;100012.59;;;-0.67;88.42
76732;BME280;65656;51.130;13.658;2022-12-19T19:27:12;100019.31;;;-0.63;88.64
76732;BME280;65656;51.130;13.658;2022-12-19T19:31:16;100019.31;;;-0.63;88.10
76732;BME280;65656;51.130;13.658;2022-12-19T19:35:19;100032.63;;;-0.61;88.12
76732;BME280;65656;51.130;13.658;2022-12-19T19:39:22;100020.69;;;-0.59;88.25
76732;BME280;65656;51.130;13.658;2022-12-19T19:43:25;100019.50;;;-0.56;88.07
76732;BME280;65656;51.130;13.658;2022-12-19T19:47:27;100003.38;;;-0.56;88.54
76732;BME280;65656;51.130;13.658;2022-12-19T19:51:29;99996.84;;;-0.53;88.42
76732;BME280;65656;51.130;13.658;2022-12-19T19:55:32;99989.09;;;-0.48;88.07
76732;BME280;65656;51.130;13.658;2022-12-19T19:59:33;99979.00;;;-0.46;87.50
76732;BME280;65656;51.130;13.658;2022-12-19T20:03:35;99969.41;;;-0.41;87.05
76732;BME280;65656;51.130;13.658;2022-12-19T20:07:37;99974.97;;;-0.42;87.15
76732;BME280;65656;51.130;13.658;2022-12-19T20:11:40;99979.34;;;-0.41;86.48
76732;BME280;65656;51.130;13.658;2022-12-19T20:15:41;99971.59;;;-0.44;86.56
76732;BME280;65656;51.130;13.658;2022-12-19T20:19:50;99964.38;;;-0.44;86.50
76732;BME280;65656;51.130;13.658;2022-12-19T20:23:51;99963.19;;;-0.41;86.50
76732;BME280;65656;51.130;13.658;2022-12-19T20:27:54;99957.50;;;-0.38;86.07
76732;BME280;65656;51.130;13.658;2022-12-19T20:31:56;99971.94;;;-0.39;86.39
76732;BME280;65656;51.130;13.658;2022-12-19T20:36:04;99950.41;;;-0.39;86.10
76732;BME280;65656;51.130;13.658;2022-12-19T20:40:07;99947.03;;;-0.41;85.81
76732;BME280;65656;51.130;13.658;2022-12-19T20:44:10;99936.63;;;-0.44;85.53
76732;BME280;65656;51.130;13.658;2022-12-19T20:48:11;99938.63;;;-0.46;85.05
76732;BME280;65656;51.130;13.658;2022-12-19T20:52:13;99941.16;;;-0.53;85.34
76732;BME280;65656;51.130;13.658;2022-12-19T20:56:16;99936.25;;;-0.58;85.10
76732;BME280;65656;51.130;13.658;2022-12-19T21:00:20;99935.25;;;-0.57;85.12
76732;BME280;65656;51.130;13.658;2022-12-19T21:04:22;99930.38;;;-0.61;85.04
76732;BME280;65656;51.130;13.658;2022-12-19T21:08:25;99924.47;;;-0.65;84.74
76732;BME280;65656;51.130;13.658;2022-12-19T21:12:27;99939.78;;;-0.65;84.94
76732;BME280;65656;51.130;13.658;2022-12-19T21:16:29;99942.63;;;-0.67;84.98